Time;durP1;ratioP1;P1;durP2;ratioP2;P2;SDS_P1;SDS_P2;PMS_P1;PMS_P2;Temp;Humidity;BMP_temperature;BMP_pressure;BME280_temperature;BME280_humidity;BME280_pressure;Samples;Min_cycle;Max_cycle;Signal;HPM_P1;HPM_P2
2023/07/06 00:01:03;;;;;;;2.72;1.58;;;;;;;;;;5030752;28;20054;-71
2023/07/06 00:03:32;;;;;;;2.47;1.83;;;;;;;;;;5029776;28;20490;-72
2023/07/06 00:05:59;;;;;;;2.33;1.90;;;;;;;;;;5027238;28;20573;-71
2023/07/06 00:08:26;;;;;;;1.67;1.58;;;;;;;;;;5035103;28;20045;-72
2023/07/06 00:10:52;;;;;;;2.38;1.80;;;;;;;;;;5015074;28;20052;-72
2023/07/06 00:13:20;;;;;;;6.45;2.15;;;;;;;;;;5035703;28;20041;-71
2023/07/06 00:15:48;;;;;;;2.35;1.48;;;;;;;;;;5030379;28;20045;-71
2023/07/06 00:18:14;;;;;;;3.92;1.67;;;;;;;;;;5034444;28;20065;-71
2023/07/06 00:20:40;;;;;;;2.88;1.77;;;;;;;;;;5030351;28;20199;-71
2023/07/06 00:23:07;;;;;;;2.42;1.60;;;;;;;;;;5032908;28;20128;-71
2023/07/06 00:25:33;;;;;;;2.45;1.67;;;;;;;;;;5032698;28;20045;-71
2023/07/06 00:28:02;;;;;;;1.88;1.67;;;;;;;;;;5033363;28;20110;-71
2023/07/06 00:30:53;;;;;;;2.53;1.58;;;;;;;;;;5032139;28;20045;-71
2023/07/06 00:33:21;;;;;;;2.47;1.70;;;;;;;;;;5013419;28;20651;-71
2023/07/06 00:35:47;;;;;;;3.45;2.00;;;;;;;;;;5029763;28;20095;-71
2023/07/06 00:38:18;;;;;;;2.60;2.00;;;;;;;;;;5029820;28;20502;-71
2023/07/06 00:40:58;;;;;;;2.50;2.03;;;;;;;;;;5027224;28;20733;-71
2023/07/06 00:43:27;;;;;;;3.33;2.08;;;;;;;;;;5028323;28;20045;-72
2023/07/06 00:46:04;;;;;;;2.47;1.88;;;;;;;;;;5013727;28;20040;-72
2023/07/06 00:48:34;;;;;;;2.42;1.90;;;;;;;;;;5029005;28;20041;-72
2023/07/06 00:51:04;;;;;;;3.47;2.25;;;;;;;;;;5028316;28;20394;-71
2023/07/06 00:53:34;;;;;;;2.88;1.70;;;;;;;;;;5029181;28;20053;-72
2023/07/06 00:56:01;;;;;;;2.58;1.95;;;;;;;;;;5031632;28;20044;-70
2023/07/06 00:58:31;;;;;;;2.25;1.90;;;;;;;;;;5029446;28;20075;-70
2023/07/06 01:00:59;;;;;;;2.75;1.70;;;;;;;;;;5026832;28;20053;-70
2023/07/06 01:03:25;;;;;;;2.75;2.10;;;;;;;;;;5030534;28;20083;-69
2023/07/06 01:05:58;;;;;;;2.67;1.90;;;;;;;;;;5031272;28;20136;-70
2023/07/06 01:08:25;;;;;;;2.83;2.00;;;;;;;;;;5032118;28;20056;-70
2023/07/06 01:10:54;;;;;;;3.60;2.15;;;;;;;;;;5024515;28;20973;-69
2023/07/06 01:13:24;;;;;;;3.65;1.98;;;;;;;;;;5029580;28;20128;-71
2023/07/06 01:16:10;;;;;;;3.92;2.08;;;;;;;;;;5027625;28;20041;-71
2023/07/06 01:19:06;;;;;;;2.22;1.83;;;;;;;;;;5042485;28;20502;-71
2023/07/06 01:21:58;;;;;;;2.00;1.80;;;;;;;;;;5025917;28;20076;-69
2023/07/06 01:24:24;;;;;;;4.38;2.70;;;;;;;;;;5029946;28;20422;-70
2023/07/06 01:27:11;;;;;;;5.85;2.28;;;;;;;;;;5029932;28;20494;-69
2023/07/06 01:29:59;;;;;;;3.10;2.10;;;;;;;;;;5010138;28;20033;-69
2023/07/06 01:32:28;;;;;;;6.32;2.05;;;;;;;;;;5029217;28;20049;-70
2023/07/06 01:34:57;;;;;;;2.80;2.05;;;;;;;;;;5036573;28;20049;-70
2023/07/06 01:37:34;;;;;;;4.32;1.95;;;;;;;;;;5026041;28;20040;-70
2023/07/06 01:40:01;;;;;;;4.25;1.88;;;;;;;;;;5025581;28;20072;-70
2023/07/06 01:42:29;;;;;;;2.90;2.63;;;;;;;;;;5026252;28;20042;-70
2023/07/06 01:44:59;;;;;;;3.08;2.08;;;;;;;;;;5019955;28;20500;-70
2023/07/06 01:47:28;;;;;;;3.92;2.22;;;;;;;;;;5018329;28;20528;-70
2023/07/06 01:49:55;;;;;;;4.70;2.50;;;;;;;;;;5024113;28;20054;-70
2023/07/06 01:52:44;;;;;;;2.40;2.13;;;;;;;;;;5023052;28;20045;-70
2023/07/06 01:55:40;;;;;;;2.83;2.03;;;;;;;;;;5025104;28;20406;-72
2023/07/06 01:58:23;;;;;;;8.75;3.00;;;;;;;;;;5025294;28;20054;-72
2023/07/06 02:00:55;;;;;;;2.78;2.20;;;;;;;;;;5025816;28;20045;-71
2023/07/06 02:03:24;;;;;;;3.03;2.25;;;;;;;;;;5024597;28;20095;-71
2023/07/06 02:05:51;;;;;;;2.60;1.92;;;;;;;;;;5017944;28;20120;-71
2023/07/06 02:08:17;;;;;;;4.43;2.30;;;;;;;;;;5033339;28;20052;-71
2023/07/06 02:10:43;;;;;;;3.25;1.85;;;;;;;;;;5019892;28;20498;-71
2023/07/06 02:13:09;;;;;;;2.45;2.05;;;;;;;;;;5017677;28;20132;-71
2023/07/06 02:15:34;;;;;;;2.03;1.83;;;;;;;;;;5018167;28;20053;-72
2023/07/06 02:18:02;;;;;;;2.22;1.83;;;;;;;;;;5029168;28;20046;-71
2023/07/06 02:20:27;;;;;;;2.75;1.98;;;;;;;;;;5029657;28;20061;-71
2023/07/06 02:22:53;;;;;;;6.13;2.45;;;;;;;;;;5025258;28;20045;-71
2023/07/06 02:25:20;;;;;;;3.13;2.22;;;;;;;;;;5031631;28;20061;-71
2023/07/06 02:27:47;;;;;;;5.72;2.15;;;;;;;;;;5011285;28;21172;-71
2023/07/06 02:30:12;;;;;;;3.95;2.10;;;;;;;;;;5022931;28;20044;-69
2023/07/06 02:32:39;;;;;;;4.03;2.08;;;;;;;;;;5031680;28;20391;-71
2023/07/06 02:35:06;;;;;;;4.00;2.30;;;;;;;;;;5030397;28;20091;-70
2023/07/06 02:37:32;;;;;;;3.58;2.10;;;;;;;;;;5031202;28;20034;-71
2023/07/06 02:39:58;;;;;;;3.17;2.05;;;;;;;;;;5028912;28;20116;-71
2023/07/06 02:42:24;;;;;;;3.15;2.30;;;;;;;;;;5028942;28;20453;-70
2023/07/06 02:44:50;;;;;;;3.95;1.80;;;;;;;;;;5032727;28;20444;-71
2023/07/06 02:47:15;;;;;;;3.50;2.30;;;;;;;;;;5032223;28;20045;-73
2023/07/06 02:49:41;;;;;;;3.50;1.90;;;;;;;;;;5035090;28;20398;-72
2023/07/06 02:52:06;;;;;;;3.03;2.30;;;;;;;;;;5019614;28;20569;-73
2023/07/06 02:54:32;;;;;;;4.00;2.08;;;;;;;;;;5017789;28;20608;-72
2023/07/06 02:57:00;;;;;;;3.30;2.15;;;;;;;;;;5034868;28;20090;-71
2023/07/06 02:59:33;;;;;;;2.45;2.13;;;;;;;;;;5033954;28;20037;-73
2023/07/06 03:01:58;;;;;;;;;;;;;;;;;;5017673;28;20044;-73
2023/07/06 03:04:25;;;;;;;2.92;2.30;;;;;;;;;;5030689;28;19920;-73
2023/07/06 03:06:51;;;;;;;3.00;2.40;;;;;;;;;;5033524;28;20051;-73
2023/07/06 03:09:17;;;;;;;2.63;2.20;;;;;;;;;;5031804;28;20115;-73
2023/07/06 03:11:44;;;;;;;3.05;2.35;;;;;;;;;;5026498;28;21179;-73
2023/07/06 03:14:13;;;;;;;3.75;2.50;;;;;;;;;;5028751;28;20472;-74
2023/07/06 03:16:41;;;;;;;2.97;2.42;;;;;;;;;;5027807;28;20037;-74
2023/07/06 03:19:11;;;;;;;3.90;2.65;;;;;;;;;;5027034;28;20935;-73
2023/07/06 03:21:39;;;;;;;4.03;2.20;;;;;;;;;;5041864;28;20413;-72
2023/07/06 03:24:07;;;;;;;5.45;2.65;;;;;;;;;;5031927;28;20056;-72
2023/07/06 03:26:34;;;;;;;4.82;2.53;;;;;;;;;;5033070;28;20124;-72
2023/07/06 03:29:07;;;;;;;2.35;2.13;;;;;;;;;;5032146;28;20045;-72
2023/07/06 03:31:33;;;;;;;3.13;2.30;;;;;;;;;;5025009;28;20414;-73
2023/07/06 03:34:07;;;;;;;2.72;2.10;;;;;;;;;;5034552;28;20071;-71
2023/07/06 03:36:34;;;;;;;3.85;2.60;;;;;;;;;;5034149;28;20056;-71
2023/07/06 03:39:00;;;;;;;2.95;2.28;;;;;;;;;;5031550;28;20059;-70
2023/07/06 03:41:26;;;;;;;6.05;2.40;;;;;;;;;;5028175;28;20751;-70
2023/07/06 03:43:56;;;;;;;5.55;2.03;;;;;;;;;;5031414;28;20049;-70
2023/07/06 03:46:24;;;;;;;4.05;2.47;;;;;;;;;;5032596;28;20133;-70
2023/07/06 03:48:50;;;;;;;3.88;2.60;;;;;;;;;;5029607;28;20045;-69
2023/07/06 03:51:15;;;;;;;4.00;2.80;;;;;;;;;;5032019;28;20175;-73
2023/07/06 03:53:40;;;;;;;3.35;2.20;;;;;;;;;;5029633;28;20056;-73
2023/07/06 03:56:07;;;;;;;2.25;2.05;;;;;;;;;;5031939;28;20053;-73
2023/07/06 03:58:33;;;;;;;8.18;2.40;;;;;;;;;;5031062;28;20037;-73
2023/07/06 04:00:59;;;;;;;4.20;2.65;;;;;;;;;;5034924;28;20049;-74
2023/07/06 04:03:27;;;;;;;3.40;2.33;;;;;;;;;;5032203;28;20049;-75
2023/07/06 04:05:54;;;;;;;2.15;1.95;;;;;;;;;;5026059;28;20053;-74
2023/07/06 04:08:22;;;;;;;3.00;2.05;;;;;;;;;;4999190;28;20501;-75
2023/07/06 04:10:48;;;;;;;2.25;1.95;;;;;;;;;;5035756;28;20129;-74
2023/07/06 04:13:14;;;;;;;2.92;2.10;;;;;;;;;;5013725;28;20958;-75
2023/07/06 04:15:42;;;;;;;3.38;2.38;;;;;;;;;;5029972;28;20044;-75
2023/07/06 04:18:08;;;;;;;2.53;2.03;;;;;;;;;;5029458;28;20083;-75
2023/07/06 04:20:34;;;;;;;4.57;2.58;;;;;;;;;;5032204;28;20753;-76
2023/07/06 04:23:00;;;;;;;2.47;2.13;;;;;;;;;;5028768;28;20402;-74
2023/07/06 04:25:31;;;;;;;6.22;2.38;;;;;;;;;;5022879;28;22140;-75
2023/07/06 04:28:05;;;;;;;7.45;2.78;;;;;;;;;;5025376;28;20524;-74
2023/07/06 04:30:33;;;;;;;5.47;2.03;;;;;;;;;;5040393;28;20059;-75
2023/07/06 04:33:00;;;;;;;2.47;2.10;;;;;;;;;;5029437;28;20578;-75
2023/07/06 04:35:26;;;;;;;3.17;2.58;;;;;;;;;;5034087;28;20048;-75
2023/07/06 04:37:53;;;;;;;4.10;2.30;;;;;;;;;;5030897;28;20661;-74
2023/07/06 04:40:20;;;;;;;3.05;2.25;;;;;;;;;;5028377;28;20075;-74
2023/07/06 04:42:48;;;;;;;4.70;2.10;;;;;;;;;;5026906;28;20057;-73
2023/07/06 04:45:14;;;;;;;3.20;2.15;;;;;;;;;;5029344;28;20123;-73
2023/07/06 04:47:40;;;;;;;6.18;2.92;;;;;;;;;;5027663;28;20138;-74
2023/07/06 04:50:11;;;;;;;5.90;2.20;;;;;;;;;;5023568;28;20041;-73
2023/07/06 04:52:38;;;;;;;4.40;2.78;;;;;;;;;;5023094;28;20154;-74
2023/07/06 04:55:05;;;;;;;3.63;2.30;;;;;;;;;;5014570;28;20045;-74
2023/07/06 04:57:31;;;;;;;2.63;2.33;;;;;;;;;;5029059;28;20037;-74
2023/07/06 04:59:56;;;;;;;3.42;2.10;;;;;;;;;;5029880;28;20414;-74
2023/07/06 05:02:22;;;;;;;3.00;2.25;;;;;;;;;;5031213;28;20036;-75
2023/07/06 05:04:49;;;;;;;3.50;2.15;;;;;;;;;;5028124;28;20084;-74
2023/07/06 05:07:14;;;;;;;3.33;1.95;;;;;;;;;;5032472;28;20407;-74
2023/07/06 05:09:43;;;;;;;3.83;2.28;;;;;;;;;;5030124;28;20060;-73
2023/07/06 05:12:09;;;;;;;4.68;2.20;;;;;;;;;;5023803;28;20538;-72
2023/07/06 05:14:35;;;;;;;2.97;2.22;;;;;;;;;;5023613;28;20436;-73
2023/07/06 05:17:01;;;;;;;2.72;2.03;;;;;;;;;;5029638;28;20506;-73
2023/07/06 05:19:28;;;;;;;3.38;2.13;;;;;;;;;;5018926;28;20477;-73
2023/07/06 05:21:57;;;;;;;4.28;2.30;;;;;;;;;;5020105;28;20633;-73
2023/07/06 05:24:26;;;;;;;4.00;1.90;;;;;;;;;;5029707;28;20060;-73
2023/07/06 05:26:52;;;;;;;3.67;2.28;;;;;;;;;;5029824;28;20045;-73
2023/07/06 05:29:17;;;;;;;3.78;2.10;;;;;;;;;;5028340;28;20493;-73
2023/07/06 05:31:45;;;;;;;3.67;2.40;;;;;;;;;;5031112;28;20086;-73
2023/07/06 05:34:11;;;;;;;2.58;2.03;;;;;;;;;;5029306;28;20069;-73
2023/07/06 05:36:37;;;;;;;3.20;2.25;;;;;;;;;;5026940;28;20072;-73
2023/07/06 05:39:03;;;;;;;3.03;2.22;;;;;;;;;;5021479;28;20632;-73
2023/07/06 05:41:29;;;;;;;3.67;2.10;;;;;;;;;;5025055;28;20052;-73
2023/07/06 05:43:54;;;;;;;2.88;2.08;;;;;;;;;;5025980;28;20045;-72
2023/07/06 05:46:20;;;;;;;2.38;2.05;;;;;;;;;;5020398;28;20041;-72
2023/07/06 05:48:45;;;;;;;3.05;2.10;;;;;;;;;;5024326;28;20730;-72
2023/07/06 05:51:10;;;;;;;2.63;1.75;;;;;;;;;;5021050;28;20056;-72
2023/07/06 05:53:36;;;;;;;2.30;2.10;;;;;;;;;;5030451;28;20053;-72
2023/07/06 05:56:01;;;;;;;3.95;2.30;;;;;;;;;;5028709;28;20060;-72
2023/07/06 05:58:27;;;;;;;2.95;2.22;;;;;;;;;;5028547;28;20053;-72
2023/07/06 06:00:53;;;;;;;2.85;2.17;;;;;;;;;;5027937;28;20047;-72
2023/07/06 06:03:19;;;;;;;3.97;2.10;;;;;;;;;;5030065;28;20048;-72
2023/07/06 06:05:45;;;;;;;3.53;2.20;;;;;;;;;;5027171;28;20049;-69
2023/07/06 06:08:11;;;;;;;3.75;2.30;;;;;;;;;;5030962;28;20046;-69
2023/07/06 06:10:37;;;;;;;3.15;2.05;;;;;;;;;;5018466;28;20533;-70
2023/07/06 06:13:02;;;;;;;2.38;1.90;;;;;;;;;;5018028;28;20147;-69
2023/07/06 06:15:28;;;;;;;4.13;2.08;;;;;;;;;;5018983;28;20128;-70
2023/07/06 06:17:54;;;;;;;3.65;2.30;;;;;;;;;;5035245;28;20817;-70
2023/07/06 06:20:19;;;;;;;2.63;1.95;;;;;;;;;;5022974;28;20415;-70
2023/07/06 06:22:45;;;;;;;3.22;2.08;;;;;;;;;;5022850;28;20048;-72
2023/07/06 06:25:11;;;;;;;2.15;1.95;;;;;;;;;;5028971;28;20666;-73
2023/07/06 06:27:36;;;;;;;2.22;2.03;;;;;;;;;;5023269;28;20111;-73
2023/07/06 06:30:05;;;;;;;3.10;2.30;;;;;;;;;;5022970;28;20045;-73
2023/07/06 06:32:30;;;;;;;2.88;2.00;;;;;;;;;;5034677;28;20049;-73
2023/07/06 06:34:56;;;;;;;2.17;1.90;;;;;;;;;;5019091;28;20107;-73
2023/07/06 06:37:21;;;;;;;2.05;1.83;;;;;;;;;;5026724;28;20038;-73
2023/07/06 06:39:46;;;;;;;4.40;2.42;;;;;;;;;;5022828;28;20648;-73
2023/07/06 06:42:13;;;;;;;2.70;2.15;;;;;;;;;;5027250;28;20497;-73
2023/07/06 06:44:41;;;;;;;1.70;1.60;;;;;;;;;;5037570;28;20041;-73
2023/07/06 06:47:07;;;;;;;3.00;1.95;;;;;;;;;;5022789;28;20041;-73
2023/07/06 06:49:33;;;;;;;3.63;1.95;;;;;;;;;;5026449;28;20060;-73
2023/07/06 06:52:01;;;;;;;2.20;1.75;;;;;;;;;;5028439;28;20037;-71
2023/07/06 06:54:28;;;;;;;3.08;2.13;;;;;;;;;;5024552;28;20454;-70
2023/07/06 06:56:54;;;;;;;2.97;2.50;;;;;;;;;;5023128;28;20048;-72
2023/07/06 06:59:19;;;;;;;2.30;2.10;;;;;;;;;;5020329;28;20045;-72
2023/07/06 07:01:46;;;;;;;2.47;2.00;;;;;;;;;;5036264;28;20056;-71
2023/07/06 07:04:11;;;;;;;2.67;1.88;;;;;;;;;;5021990;28;20037;-70
2023/07/06 07:06:38;;;;;;;3.25;1.90;;;;;;;;;;5022872;28;20537;-70
2023/07/06 07:09:04;;;;;;;2.20;2.00;;;;;;;;;;5022808;28;20084;-71
2023/07/06 07:11:30;;;;;;;5.43;1.75;;;;;;;;;;5003252;28;20076;-71
2023/07/06 07:13:55;;;;;;;2.78;1.88;;;;;;;;;;5031233;28;20499;-70
2023/07/06 07:16:21;;;;;;;4.97;1.90;;;;;;;;;;5021830;28;20095;-72
2023/07/06 07:18:48;;;;;;;2.40;2.20;;;;;;;;;;5029641;28;21087;-71
2023/07/06 07:21:14;;;;;;;2.10;1.90;;;;;;;;;;5025410;28;20046;-70
2023/07/06 07:23:41;;;;;;;2.70;1.83;;;;;;;;;;5023136;28;20522;-71
2023/07/06 07:26:15;;;;;;;5.03;2.20;;;;;;;;;;5027379;28;20095;-73
2023/07/06 07:28:41;;;;;;;2.20;1.98;;;;;;;;;;5021202;28;20049;-71
2023/07/06 07:31:11;;;;;;;2.55;2.00;;;;;;;;;;5022042;28;20091;-71
2023/07/06 07:33:37;;;;;;;3.55;2.03;;;;;;;;;;5004397;28;20136;-70
2023/07/06 07:36:04;;;;;;;4.25;1.92;;;;;;;;;;5021919;28;20632;-71
2023/07/06 07:38:29;;;;;;;4.07;2.42;;;;;;;;;;5036348;28;20056;-70
2023/07/06 07:41:01;;;;;;;1.92;1.73;;;;;;;;;;5022187;28;20044;-72
2023/07/06 07:43:29;;;;;;;3.33;1.73;;;;;;;;;;5021310;28;20727;-71
2023/07/06 07:46:03;;;;;;;2.45;1.80;;;;;;;;;;5020462;28;20067;-71
2023/07/06 07:48:32;;;;;;;3.22;1.80;;;;;;;;;;5023834;28;20521;-73
2023/07/06 07:51:01;;;;;;;2.83;1.70;;;;;;;;;;5023157;28;20041;-72
2023/07/06 07:53:31;;;;;;;1.63;1.52;;;;;;;;;;5022371;28;20754;-71
2023/07/06 07:55:57;;;;;;;1.98;1.77;;;;;;;;;;5023871;28;20033;-72
2023/07/06 07:58:23;;;;;;;3.17;1.80;;;;;;;;;;5020976;28;20398;-73
2023/07/06 08:00:55;;;;;;;1.63;1.42;;;;;;;;;;5030745;28;20045;-72
2023/07/06 08:03:22;;;;;;;3.20;2.05;;;;;;;;;;5024089;28;20042;-71
2023/07/06 08:05:47;;;;;;;2.70;1.70;;;;;;;;;;5025449;28;20533;-73
2023/07/06 08:08:13;;;;;;;1.98;1.70;;;;;;;;;;5018258;28;20069;-74
2023/07/06 08:10:40;;;;;;;3.22;1.50;;;;;;;;;;5036235;28;20049;-72
2023/07/06 08:13:09;;;;;;;1.45;1.35;;;;;;;;;;5021587;28;20192;-71
2023/07/06 08:15:39;;;;;;;2.13;1.20;;;;;;;;;;5032692;28;20077;-72
2023/07/06 08:18:06;;;;;;;2.88;1.80;;;;;;;;;;5020331;28;20548;-71
2023/07/06 08:20:35;;;;;;;2.72;1.80;;;;;;;;;;5035427;28;20077;-70
2023/07/06 08:23:10;;;;;;;2.80;1.50;;;;;;;;;;5019735;28;20053;-71
2023/07/06 08:25:42;;;;;;;1.63;1.40;;;;;;;;;;5019864;28;20049;-72
2023/07/06 08:28:10;;;;;;;2.38;1.70;;;;;;;;;;5026349;28;20045;-70
2023/07/06 08:30:37;;;;;;;2.25;1.70;;;;;;;;;;5021318;28;20051;-71
2023/07/06 08:33:04;;;;;;;8.85;2.00;;;;;;;;;;5029557;28;20211;-72
2023/07/06 08:35:30;;;;;;;6.35;1.95;;;;;;;;;;5015417;28;20098;-70
2023/07/06 08:37:57;;;;;;;3.80;1.73;;;;;;;;;;5019379;28;20053;-73
2023/07/06 08:40:30;;;;;;;5.80;1.60;;;;;;;;;;5017355;28;20040;-73
2023/07/06 08:42:57;;;;;;;4.05;1.67;;;;;;;;;;5027956;28;20084;-73
2023/07/06 08:45:27;;;;;;;4.50;1.65;;;;;;;;;;5029338;28;20179;-72
2023/07/06 08:47:53;;;;;;;4.07;1.80;;;;;;;;;;5021862;28;20102;-71
2023/07/06 08:50:31;;;;;;;6.78;1.73;;;;;;;;;;5029918;28;20479;-73
2023/07/06 08:52:57;;;;;;;2.15;1.67;;;;;;;;;;5030190;28;20048;-72
2023/07/06 08:55:24;;;;;;;1.92;1.60;;;;;;;;;;5029679;28;20033;-74
2023/07/06 08:57:50;;;;;;;3.22;1.60;;;;;;;;;;5029831;28;20148;-73
2023/07/06 09:00:16;;;;;;;2.65;1.67;;;;;;;;;;5028328;28;20053;-74
2023/07/06 09:02:41;;;;;;;4.97;1.90;;;;;;;;;;5030157;28;20387;-73
2023/07/06 09:05:13;;;;;;;4.75;1.50;;;;;;;;;;5025280;28;20058;-72
2023/07/06 09:07:42;;;;;;;4.22;2.20;;;;;;;;;;5020261;28;20132;-73
2023/07/06 09:10:19;;;;;;;3.08;1.60;;;;;;;;;;5021904;28;20124;-72
2023/07/06 09:12:44;;;;;;;2.38;1.60;;;;;;;;;;5019132;28;20047;-73
2023/07/06 09:15:14;;;;;;;3.22;1.80;;;;;;;;;;5020537;28;20045;-73
2023/07/06 09:17:50;;;;;;;2.92;2.00;;;;;;;;;;5024258;28;20410;-73
2023/07/06 09:20:18;;;;;;;2.42;1.67;;;;;;;;;;5019597;28;20156;-72
2023/07/06 09:22:44;;;;;;;3.85;2.30;;;;;;;;;;5034655;28;20045;-72
2023/07/06 09:25:27;;;;;;;2.00;1.48;;;;;;;;;;5020410;28;20045;-71
2023/07/06 09:27:56;;;;;;;2.60;1.70;;;;;;;;;;5019843;28;20453;-72
2023/07/06 09:30:32;;;;;;;2.00;1.80;;;;;;;;;;5021287;28;20041;-72
2023/07/06 09:33:06;;;;;;;1.90;1.70;;;;;;;;;;5019540;28;20045;-73
2023/07/06 09:35:36;;;;;;;2.10;1.65;;;;;;;;;;5026736;28;20045;-71
2023/07/06 09:38:04;;;;;;;2.50;1.63;;;;;;;;;;5029865;28;20037;-73
2023/07/06 09:40:30;;;;;;;3.97;2.03;;;;;;;;;;5000475;28;20552;-73
2023/07/06 09:42:56;;;;;;;1.85;1.73;;;;;;;;;;5019949;28;20053;-73
2023/07/06 09:45:24;;;;;;;4.53;1.98;;;;;;;;;;5019266;28;20053;-72
2023/07/06 09:47:58;;;;;;;2.95;1.98;;;;;;;;;;5019667;28;20045;-71
2023/07/06 09:50:38;;;;;;;2.58;1.98;;;;;;;;;;5018945;28;20410;-72
2023/07/06 09:53:07;;;;;;;4.60;2.40;;;;;;;;;;5021632;28;20069;-72
2023/07/06 09:55:33;;;;;;;4.97;1.90;;;;;;;;;;5024103;28;20041;-72
2023/07/06 09:58:00;;;;;;;3.45;1.63;;;;;;;;;;5025946;28;20047;-72
2023/07/06 10:00:39;;;;;;;1.90;1.70;;;;;;;;;;5029600;28;20059;-71
2023/07/06 10:03:42;;;;;;;2.58;2.10;;;;;;;;;;5028267;28;20044;-72
2023/07/06 10:06:21;;;;;;;3.10;2.10;;;;;;;;;;5032581;28;20041;-74
2023/07/06 10:08:58;;;;;;;2.47;2.03;;;;;;;;;;4999424;28;20044;-73
2023/07/06 10:11:35;;;;;;;3.88;1.90;;;;;;;;;;5034966;28;20049;-73
2023/07/06 10:14:15;;;;;;;2.92;1.83;;;;;;;;;;5023010;28;20505;-73
2023/07/06 10:17:07;;;;;;;2.42;1.95;;;;;;;;;;5026394;28;20049;-70
2023/07/06 10:19:58;;;;;;;3.63;1.90;;;;;;;;;;5002190;28;20410;-72
2023/07/06 10:22:49;;;;;;;7.35;1.80;;;;;;;;;;5022064;28;20938;-70
2023/07/06 10:25:51;;;;;;;2.25;2.05;;;;;;;;;;5019421;28;20075;-70
2023/07/06 10:28:23;;;;;;;2.85;1.98;;;;;;;;;;5011234;28;20064;-74
2023/07/06 10:30:51;;;;;;;2.33;1.65;;;;;;;;;;5019073;28;20038;-74
2023/07/06 10:33:24;;;;;;;2.38;2.17;;;;;;;;;;5022981;28;20053;-73
2023/07/06 10:35:52;;;;;;;2.92;2.15;;;;;;;;;;5018961;28;20056;-72
2023/07/06 10:38:19;;;;;;;4.93;1.90;;;;;;;;;;5017474;28;20045;-73
2023/07/06 10:41:27;;;;;;;2.75;1.90;;;;;;;;;;5020528;28;20072;-73
2023/07/06 10:43:56;;;;;;;4.90;2.20;;;;;;;;;;5010454;28;20037;-74
2023/07/06 10:46:35;;;;;;;2.22;1.90;;;;;;;;;;5022640;28;20052;-77
2023/07/06 10:49:21;;;;;;;4.43;2.30;;;;;;;;;;5023286;28;20045;-74
2023/07/06 10:52:07;;;;;;;2.10;1.80;;;;;;;;;;5028046;28;20045;-77
2023/07/06 10:54:32;;;;;;;3.03;2.20;;;;;;;;;;5032636;28;20045;-73
2023/07/06 10:57:02;;;;;;;2.13;1.63;;;;;;;;;;5029348;28;20365;-74
2023/07/06 10:59:38;;;;;;;3.67;2.47;;;;;;;;;;5027113;28;20569;-72
2023/07/06 11:02:13;;;;;;;2.63;2.40;;;;;;;;;;5031229;28;20064;-74
2023/07/06 11:04:41;;;;;;;3.03;2.20;;;;;;;;;;5024225;28;20517;-74
2023/07/06 11:07:09;;;;;;;3.08;2.33;;;;;;;;;;5033306;28;20053;-74
2023/07/06 11:10:12;;;;;;;2.40;2.20;;;;;;;;;;5030510;28;20045;-74
2023/07/06 11:13:01;;;;;;;3.88;2.40;;;;;;;;;;5004747;28;20077;-74
2023/07/06 11:15:43;;;;;;;2.53;2.10;;;;;;;;;;5025390;28;20041;-74
2023/07/06 11:18:21;;;;;;;3.22;2.30;;;;;;;;;;5022152;28;20055;-75
2023/07/06 11:21:23;;;;;;;3.88;2.58;;;;;;;;;;5023744;28;20059;-75
2023/07/06 11:24:06;;;;;;;2.65;2.20;;;;;;;;;;5030907;28;20057;-77
2023/07/06 11:26:50;;;;;;;2.20;2.00;;;;;;;;;;5024732;28;20119;-71
2023/07/06 11:29:19;;;;;;;2.30;2.10;;;;;;;;;;5028016;28;20043;-72
2023/07/06 11:32:13;;;;;;;2.42;2.17;;;;;;;;;;5028666;28;20130;-72
2023/07/06 11:35:31;;;;;;;2.70;2.10;;;;;;;;;;5039755;28;20045;-72
2023/07/06 11:38:29;;;;;;;3.95;2.30;;;;;;;;;;4995392;28;20044;-72
2023/07/06 11:41:09;;;;;;;2.90;2.30;;;;;;;;;;5039120;28;20041;-72
2023/07/06 11:43:37;;;;;;;3.05;2.47;;;;;;;;;;5024870;28;20057;-72
2023/07/06 11:46:27;;;;;;;2.63;2.20;;;;;;;;;;5029232;28;20053;-72
2023/07/06 11:49:05;;;;;;;2.30;2.05;;;;;;;;;;5021237;28;20088;-75
2023/07/06 11:51:34;;;;;;;3.05;2.08;;;;;;;;;;5026994;28;20797;-74
2023/07/06 11:54:01;;;;;;;2.65;2.20;;;;;;;;;;5031745;28;20040;-77
2023/07/06 11:56:50;;;;;;;4.25;2.50;;;;;;;;;;5027107;28;20052;-74
2023/07/06 12:00:16;;;;;;;2.80;2.40;;;;;;;;;;5028220;28;20506;-74
2023/07/06 12:02:17;;;;;;;2.92;2.38;;;;;;;;;;5028491;28;20057;-77
2023/07/06 12:04:46;;;;;;;2.13;1.92;;;;;;;;;;5030915;28;20052;-74
2023/07/06 12:07:26;;;;;;;3.15;2.55;;;;;;;;;;5028027;28;20052;-74
2023/07/06 12:09:52;;;;;;;3.38;2.13;;;;;;;;;;5026199;28;20041;-76
2023/07/06 12:12:23;;;;;;;2.17;1.92;;;;;;;;;;5024511;28;20041;-73
2023/07/06 12:14:52;;;;;;;5.07;2.45;;;;;;;;;;5027368;28;20106;-74
2023/07/06 12:17:18;;;;;;;2.67;2.20;;;;;;;;;;5030889;28;20064;-75
2023/07/06 12:19:43;;;;;;;4.90;2.38;;;;;;;;;;5027424;28;20076;-75
2023/07/06 12:22:18;;;;;;;3.40;2.40;;;;;;;;;;5026869;28;20108;-74
2023/07/06 12:24:44;;;;;;;2.58;2.30;;;;;;;;;;5026355;28;20047;-74
2023/07/06 12:27:15;;;;;;;2.45;2.13;;;;;;;;;;5024093;28;20152;-74
2023/07/06 12:29:41;;;;;;;3.45;2.00;;;;;;;;;;5022790;28;20057;-75
2023/07/06 12:32:21;;;;;;;2.83;2.55;;;;;;;;;;5023556;28;20502;-74
2023/07/06 12:34:52;;;;;;;2.55;2.03;;;;;;;;;;5028641;28;20060;-75
2023/07/06 12:37:20;;;;;;;4.72;2.45;;;;;;;;;;5028070;28;20148;-75
2023/07/06 12:39:47;;;;;;;2.95;2.05;;;;;;;;;;5031165;28;20132;-75
2023/07/06 12:42:16;;;;;;;3.83;2.42;;;;;;;;;;5027805;28;20041;-74
2023/07/06 12:44:43;;;;;;;2.55;2.28;;;;;;;;;;5026581;28;20064;-74
2023/07/06 12:47:43;;;;;;;2.72;2.20;;;;;;;;;;5024204;28;20068;-74
2023/07/06 12:50:16;;;;;;;2.85;2.05;;;;;;;;;;5043619;28;20040;-74
2023/07/06 12:52:42;;;;;;;3.08;2.22;;;;;;;;;;5024790;28;20037;-74
2023/07/06 12:55:16;;;;;;;5.20;2.15;;;;;;;;;;5027482;28;20119;-75
2023/07/06 12:57:43;;;;;;;3.60;2.30;;;;;;;;;;5031559;28;20048;-73
2023/07/06 13:00:21;;;;;;;3.30;2.30;;;;;;;;;;5029253;28;20064;-75
2023/07/06 13:02:54;;;;;;;3.00;2.10;;;;;;;;;;5020974;28;20049;-75
2023/07/06 13:05:27;;;;;;;3.25;2.40;;;;;;;;;;4993318;28;20043;-74
2023/07/06 13:07:54;;;;;;;3.13;2.55;;;;;;;;;;5023859;28;21180;-74
2023/07/06 13:10:25;;;;;;;5.82;2.75;;;;;;;;;;5032497;28;20048;-74
2023/07/06 13:12:54;;;;;;;4.45;1.92;;;;;;;;;;5024190;28;20045;-74
2023/07/06 13:15:25;;;;;;;5.80;2.25;;;;;;;;;;5023276;28;20067;-74
2023/07/06 13:17:54;;;;;;;3.45;2.40;;;;;;;;;;5021275;28;20102;-74
2023/07/06 13:20:19;;;;;;;3.25;2.20;;;;;;;;;;5025127;28;20137;-72
2023/07/06 13:22:45;;;;;;;3.40;1.98;;;;;;;;;;5027994;28;20136;-73
2023/07/06 13:25:17;;;;;;;3.05;2.08;;;;;;;;;;5026467;28;20531;-72
2023/07/06 13:27:47;;;;;;;2.47;2.10;;;;;;;;;;5012811;28;20041;-73
2023/07/06 13:30:14;;;;;;;2.88;2.38;;;;;;;;;;5027480;28;20045;-73
2023/07/06 13:32:41;;;;;;;3.47;2.58;;;;;;;;;;5030896;28;20421;-73
2023/07/06 13:35:09;;;;;;;2.30;1.90;;;;;;;;;;5030252;28;20044;-71
2023/07/06 13:37:40;;;;;;;2.90;2.10;;;;;;;;;;5028413;28;20091;-71
2023/07/06 13:40:06;;;;;;;;;;;;;;;;;;5025184;28;20046;-72
2023/07/06 13:42:33;;;;;;;4.40;2.60;;;;;;;;;;5021631;28;19932;-72
2023/07/06 13:44:59;;;;;;;3.85;2.45;;;;;;;;;;5032903;28;20132;-73
2023/07/06 13:47:26;;;;;;;4.63;2.20;;;;;;;;;;5019550;28;20148;-73
2023/07/06 13:49:51;;;;;;;2.10;1.90;;;;;;;;;;5025903;28;20060;-71
2023/07/06 13:52:17;;;;;;;3.38;2.17;;;;;;;;;;5022314;28;20046;-74
2023/07/06 13:54:42;;;;;;;6.30;2.17;;;;;;;;;;4987900;28;20056;-72
2023/07/06 13:57:08;;;;;;;2.63;2.17;;;;;;;;;;5026254;28;20045;-73
2023/07/06 13:59:35;;;;;;;5.03;2.10;;;;;;;;;;5028548;28;20063;-71
2023/07/06 14:02:02;;;;;;;3.20;2.08;;;;;;;;;;5027312;28;20049;-73
2023/07/06 14:04:31;;;;;;;7.25;2.55;;;;;;;;;;5031378;28;20494;-71
2023/07/06 14:06:57;;;;;;;2.88;2.50;;;;;;;;;;5023789;28;20053;-73
2023/07/06 14:09:23;;;;;;;5.90;2.20;;;;;;;;;;5024826;28;20128;-74
2023/07/06 14:11:50;;;;;;;2.83;2.35;;;;;;;;;;5009457;28;20155;-75
2023/07/06 14:14:15;;;;;;;2.85;2.25;;;;;;;;;;4992967;28;20054;-76
2023/07/06 14:16:41;;;;;;;3.90;2.00;;;;;;;;;;5026793;28;20052;-74
2023/07/06 14:19:06;;;;;;;5.85;2.30;;;;;;;;;;5024258;28;20056;-73
2023/07/06 14:21:35;;;;;;;5.55;2.30;;;;;;;;;;5022892;28;20052;-74
2023/07/06 14:24:00;;;;;;;3.95;2.60;;;;;;;;;;5025381;28;20041;-70
2023/07/06 14:26:27;;;;;;;3.00;2.10;;;;;;;;;;5021298;28;20500;-70
2023/07/06 14:28:54;;;;;;;3.38;2.58;;;;;;;;;;5013082;28;20045;-71
2023/07/06 14:31:23;;;;;;;4.10;2.20;;;;;;;;;;5030111;28;20063;-74
2023/07/06 14:33:49;;;;;;;5.00;2.08;;;;;;;;;;5026713;28;20495;-73
2023/07/06 14:36:14;;;;;;;5.07;2.40;;;;;;;;;;5026865;28;20052;-75
2023/07/06 14:38:40;;;;;;;6.88;2.45;;;;;;;;;;5023459;28;20049;-73
2023/07/06 14:41:07;;;;;;;6.28;3.70;;;;;;;;;;5024421;28;20122;-73
2023/07/06 14:43:33;;;;;;;5.43;2.45;;;;;;;;;;5022776;28;20148;-75
2023/07/06 14:45:59;;;;;;;4.82;2.28;;;;;;;;;;5016252;28;20045;-71
2023/07/06 14:48:24;;;;;;;2.85;2.33;;;;;;;;;;5031534;28;20085;-71
2023/07/06 14:50:50;;;;;;;2.97;2.50;;;;;;;;;;5027504;28;20044;-72
2023/07/06 14:53:15;;;;;;;2.95;2.53;;;;;;;;;;5030901;28;20041;-73
2023/07/06 14:55:45;;;;;;;3.28;2.47;;;;;;;;;;5023808;28;20136;-72
2023/07/06 14:58:10;;;;;;;3.83;2.40;;;;;;;;;;5031028;28;20049;-70
2023/07/06 15:00:36;;;;;;;3.17;2.20;;;;;;;;;;5023683;28;20092;-74